createdAt,value
2023-07-11T00:01:34.210Z,20.69
2023-07-11T00:04:02.849Z,20.65
2023-07-11T00:06:31.455Z,20.69
2023-07-11T00:08:59.721Z,20.80
2023-07-11T00:11:28.193Z,20.83
2023-07-11T00:14:00.734Z,20.85
2023-07-11T00:16:29.202Z,20.93
2023-07-11T00:18:57.456Z,20.96
2023-07-11T00:21:25.838Z,20.84
2023-07-11T00:23:54.186Z,20.77
2023-07-11T00:26:22.587Z,20.72
2023-07-11T00:28:50.885Z,20.70
2023-07-11T00:31:21.749Z,20.74
2023-07-11T00:33:50.096Z,20.77
2023-07-11T00:36:18.458Z,20.84
2023-07-11T00:38:46.842Z,20.85
2023-07-11T00:41:15.105Z,20.69
2023-07-11T00:43:43.356Z,20.73
2023-07-11T00:46:16.387Z,20.80
2023-07-11T00:48:49.832Z,20.96
2023-07-11T00:51:22.259Z,20.93
2023-07-11T00:53:51.662Z,20.86
2023-07-11T00:56:25.854Z,20.85
2023-07-11T00:58:55.766Z,20.83
2023-07-11T01:01:24.671Z,20.98
2023-07-11T01:03:57.010Z,21.02
2023-07-11T01:06:29.171Z,21.29
2023-07-11T01:08:59.704Z,21.21
2023-07-11T01:11:30.421Z,21.20
2023-07-11T01:13:59.201Z,21.04
2023-07-11T01:16:28.708Z,20.93
2023-07-11T01:18:58.457Z,20.78
2023-07-11T01:21:28.197Z,20.67
2023-07-11T01:23:56.569Z,20.50
2023-07-11T01:26:24.989Z,20.42
2023-07-11T01:28:53.255Z,20.33
2023-07-11T01:31:21.543Z,20.26
2023-07-11T01:33:49.902Z,20.28
2023-07-11T01:36:18.556Z,20.27
2023-07-11T01:38:48.301Z,20.24
2023-07-11T01:41:16.606Z,20.27
2023-07-11T01:43:45.084Z,20.46
2023-07-11T01:46:13.670Z,20.59
2023-07-11T01:48:41.929Z,20.61
2023-07-11T01:51:10.221Z,20.62
2023-07-11T01:53:38.523Z,20.56
2023-07-11T01:56:08.693Z,20.52
2023-07-11T01:58:39.426Z,20.39
2023-07-11T02:01:09.919Z,20.21
2023-07-11T02:03:38.278Z,20.15
2023-07-11T02:06:06.994Z,20.10
2023-07-11T02:08:35.838Z,20.14
2023-07-11T02:11:04.105Z,20.17
2023-07-11T02:13:33.969Z,20.17
2023-07-11T02:16:03.049Z,20.20
2023-07-11T02:18:31.998Z,20.19
2023-07-11T02:21:00.640Z,20.08
2023-07-11T02:23:29.538Z,20.08
2023-07-11T02:25:58.098Z,19.89
2023-07-11T02:28:26.560Z,19.98
2023-07-11T02:30:57.811Z,19.95
2023-07-11T02:33:26.693Z,19.93
2023-07-11T02:35:55.340Z,19.89
2023-07-11T02:38:23.973Z,19.93
2023-07-11T02:40:52.682Z,19.93
2023-07-11T02:43:22.883Z,20.07
2023-07-11T02:45:52.814Z,20.11
2023-07-11T02:48:23.299Z,20.14
2023-07-11T02:50:51.999Z,20.25
2023-07-11T02:53:20.838Z,20.40
2023-07-11T02:55:52.264Z,20.51
2023-07-11T02:58:20.718Z,20.63
2023-07-11T03:00:50.037Z,20.77
2023-07-11T03:03:18.457Z,20.79
2023-07-11T03:05:49.141Z,20.76
2023-07-11T03:08:17.960Z,20.75
2023-07-11T03:10:46.704Z,20.77
2023-07-11T03:13:15.709Z,20.81
2023-07-11T03:15:44.135Z,21.03
2023-07-11T03:18:13.077Z,21.53
2023-07-11T03:20:41.961Z,22.32
2023-07-11T03:23:15.136Z,22.76
2023-07-11T03:25:44.138Z,23.05
2023-07-11T03:28:12.430Z,23.48
2023-07-11T03:30:40.749Z,23.97
2023-07-11T03:33:09.007Z,24.05
2023-07-11T03:35:37.809Z,23.53
2023-07-11T03:38:06.771Z,24.01
2023-07-11T03:40:36.634Z,25.11
2023-07-11T03:43:04.967Z,25.70
2023-07-11T03:45:33.467Z,26.30
2023-07-11T03:48:01.799Z,26.83
2023-07-11T03:50:30.207Z,27.48
2023-07-11T03:52:58.463Z,27.92
2023-07-11T03:55:26.943Z,28.23
2023-07-11T03:57:56.822Z,28.47
2023-07-11T04:00:25.153Z,28.92
2023-07-11T04:02:53.532Z,29.03
2023-07-11T04:05:21.888Z,29.64
2023-07-11T04:07:50.190Z,28.52
2023-07-11T04:10:18.708Z,27.91
2023-07-11T04:12:46.962Z,27.54
2023-07-11T04:15:16.814Z,28.96
2023-07-11T04:17:45.960Z,29.82
2023-07-11T04:20:14.699Z,31.02
2023-07-11T04:22:43.083Z,31.31
2023-07-11T04:25:11.488Z,31.92
2023-07-11T04:27:39.969Z,32.03
2023-07-11T04:30:10.235Z,32.26
2023-07-11T04:32:41.257Z,31.49
2023-07-11T04:35:15.000Z,32.12
2023-07-11T04:37:43.621Z,32.29
2023-07-11T04:40:12.779Z,32.23
2023-07-11T04:42:41.150Z,32.41
2023-07-11T04:45:11.498Z,32.64
2023-07-11T04:47:41.321Z,33.15
2023-07-11T04:50:10.772Z,33.07
2023-07-11T04:52:39.349Z,32.76
2023-07-11T04:55:08.835Z,33.02
2023-07-11T04:57:37.233Z,32.80
2023-07-11T05:00:07.339Z,33.36
2023-07-11T05:02:36.693Z,33.99
2023-07-11T05:05:06.936Z,33.97
2023-07-11T05:07:35.432Z,34.04
2023-07-11T05:10:03.713Z,34.60
2023-07-11T05:12:31.987Z,34.33
2023-07-11T05:15:00.274Z,34.59
2023-07-11T05:17:28.746Z,34.50
2023-07-11T05:19:57.108Z,34.94
2023-07-11T05:22:27.642Z,35.35
2023-07-11T05:24:56.703Z,35.30
2023-07-11T05:27:26.387Z,34.91
2023-07-11T05:29:54.629Z,35.66
2023-07-11T05:32:22.972Z,35.71
2023-07-11T05:34:51.316Z,35.41
2023-07-11T05:37:19.745Z,35.33
2023-07-11T05:39:50.064Z,34.99
2023-07-11T05:42:18.339Z,35.23
2023-07-11T05:44:47.044Z,35.47
2023-07-11T05:47:15.372Z,35.71
2023-07-11T05:49:43.827Z,36.07
2023-07-11T05:52:12.123Z,36.53
2023-07-11T05:54:40.459Z,36.55
2023-07-11T05:57:10.389Z,36.05
2023-07-11T05:59:39.034Z,36.27
2023-07-11T06:02:08.289Z,36.29
2023-07-11T06:04:36.548Z,35.91
2023-07-11T06:07:05.192Z,36.66
2023-07-11T06:09:35.520Z,37.56
2023-07-11T06:12:04.039Z,37.39
2023-07-11T06:14:33.735Z,37.63
2023-07-11T06:17:02.050Z,37.01
2023-07-11T06:19:30.694Z,37.29
2023-07-11T06:21:59.386Z,36.80
2023-07-11T06:24:27.756Z,35.94
2023-07-11T06:26:56.554Z,35.98
2023-07-11T06:29:27.862Z,36.48
2023-07-11T06:31:59.296Z,36.47
2023-07-11T06:34:27.783Z,36.26
2023-07-11T06:36:58.280Z,36.05
2023-07-11T06:39:27.000Z,36.10
2023-07-11T06:41:55.463Z,35.74
2023-07-11T06:44:24.526Z,35.58
2023-07-11T06:46:53.058Z,35.12
2023-07-11T06:49:23.197Z,35.82
2023-07-11T06:51:52.052Z,35.56
2023-07-11T06:54:20.489Z,35.88
2023-07-11T06:56:48.968Z,36.45
2023-07-11T06:59:22.020Z,36.41
2023-07-11T07:01:51.318Z,36.20
2023-07-11T07:04:19.680Z,36.32
2023-07-11T07:06:50.300Z,36.87
2023-07-11T07:09:19.905Z,36.71
2023-07-11T07:11:48.363Z,36.79
2023-07-11T07:14:17.090Z,36.49
2023-07-11T07:16:45.642Z,36.04
2023-07-11T07:19:14.349Z,35.86
2023-07-11T07:21:42.644Z,36.30
2023-07-11T07:24:12.524Z,36.44
2023-07-11T07:26:42.779Z,37.20
2023-07-11T07:29:11.283Z,36.29
2023-07-11T07:31:39.932Z,36.86
2023-07-11T07:34:09.496Z,36.82
2023-07-11T07:36:38.097Z,36.00
2023-07-11T07:39:06.465Z,36.24
2023-07-11T07:41:36.209Z,36.01
2023-07-11T07:44:04.800Z,36.31
2023-07-11T07:46:33.080Z,35.92
2023-07-11T07:49:01.445Z,34.77
2023-07-11T07:51:29.754Z,35.12
2023-07-11T07:53:58.006Z,35.12
2023-07-11T07:56:26.782Z,35.69
2023-07-11T07:58:56.417Z,36.21
2023-07-11T08:01:25.068Z,35.82
2023-07-11T08:03:53.441Z,35.47
2023-07-11T08:06:21.845Z,35.32
2023-07-11T08:08:51.805Z,35.32
2023-07-11T08:11:22.702Z,35.06
2023-07-11T08:13:59.360Z,34.79
2023-07-11T08:16:33.519Z,33.64
2023-07-11T08:19:06.841Z,33.01
2023-07-11T08:21:36.398Z,32.63
2023-07-11T08:24:06.509Z,32.01
2023-07-11T08:26:35.204Z,31.20
2023-07-11T08:29:12.650Z,31.08
2023-07-11T08:31:50.193Z,31.12
2023-07-11T08:34:18.454Z,31.33
2023-07-11T08:36:48.282Z,31.45
2023-07-11T08:39:16.923Z,31.40
2023-07-11T08:41:47.933Z,31.16
2023-07-11T08:44:20.207Z,30.79
2023-07-11T08:46:57.719Z,30.14
2023-07-11T08:49:32.031Z,30.47
2023-07-11T08:52:03.839Z,30.77
2023-07-11T08:54:36.035Z,30.92
2023-07-11T08:57:05.097Z,30.79
2023-07-11T08:59:49.182Z,30.70
2023-07-11T09:02:31.252Z,30.85
2023-07-11T09:04:59.794Z,30.64
2023-07-11T09:07:38.186Z,30.87
2023-07-11T09:10:38.290Z,30.72
2023-07-11T09:13:32.014Z,31.09
2023-07-11T09:16:08.545Z,31.12
2023-07-11T09:18:47.875Z,30.77
2023-07-11T09:21:21.588Z,30.70
2023-07-11T09:24:05.720Z,31.24
2023-07-11T09:26:49.734Z,31.14
2023-07-11T09:29:19.582Z,31.50
2023-07-11T09:31:53.242Z,31.46
2023-07-11T09:34:28.452Z,31.39
2023-07-11T09:37:01.162Z,31.00
2023-07-11T09:39:36.131Z,31.09
2023-07-11T09:42:11.764Z,31.17
2023-07-11T09:44:40.058Z,30.93
2023-07-11T09:47:19.283Z,31.08
2023-07-11T09:49:50.679Z,30.88
2023-07-11T09:52:27.943Z,30.89
2023-07-11T09:55:07.730Z,31.35
2023-07-11T09:57:37.312Z,31.59
2023-07-11T10:02:48.231Z,31.72
2023-07-11T10:05:20.454Z,31.79
2023-07-11T10:08:00.256Z,32.04
2023-07-11T10:10:28.976Z,32.03
2023-07-11T10:12:57.773Z,32.26
2023-07-11T10:15:29.512Z,31.55
2023-07-11T10:17:58.524Z,31.38
2023-07-11T10:20:29.972Z,31.50
2023-07-11T10:23:06.842Z,31.66
2023-07-11T10:25:35.380Z,31.19
2023-07-11T10:28:09.667Z,30.69
2023-07-11T10:30:41.216Z,31.00
2023-07-11T10:33:22.660Z,30.90
2023-07-11T10:35:58.473Z,31.03
2023-07-11T10:38:31.089Z,31.17
2023-07-11T10:41:05.018Z,31.18
2023-07-11T10:43:39.058Z,31.12
2023-07-11T10:46:17.874Z,30.61
2023-07-11T10:48:51.982Z,30.76
2023-07-11T10:51:28.742Z,30.68
2023-07-11T10:54:06.283Z,30.64
2023-07-11T10:56:39.908Z,30.70
2023-07-11T10:59:13.541Z,30.73
2023-07-11T11:01:52.204Z,31.25
2023-07-11T11:04:36.428Z,31.11
2023-07-11T11:07:12.434Z,31.06
2023-07-11T11:09:45.590Z,30.34
2023-07-11T11:12:24.334Z,30.43
2023-07-11T11:14:57.039Z,30.90
2023-07-11T11:17:41.125Z,30.83
2023-07-11T11:20:17.818Z,30.97
2023-07-11T11:23:04.524Z,31.23
2023-07-11T11:25:40.059Z,31.26
2023-07-11T11:28:19.962Z,30.83
2023-07-11T11:30:58.668Z,30.75
2023-07-11T11:33:43.414Z,30.35
2023-07-11T11:36:19.636Z,30.33
2023-07-11T11:39:05.884Z,30.04
2023-07-11T11:41:38.606Z,29.74
2023-07-11T11:49:41.344Z,29.28
2023-07-11T11:52:11.884Z,28.95
2023-07-11T11:54:46.223Z,28.43
2023-07-11T11:57:23.028Z,27.48
2023-07-11T11:59:52.289Z,27.15
2023-07-11T12:02:30.460Z,27.27
2023-07-11T12:05:02.489Z,27.31
2023-07-11T12:07:39.047Z,27.22
2023-07-11T12:10:20.999Z,26.77
2023-07-11T12:13:18.351Z,26.86
2023-07-11T12:15:51.097Z,27.10
2023-07-11T12:18:46.155Z,27.32
2023-07-11T12:21:47.541Z,27.29
2023-07-11T12:24:41.916Z,27.53
2023-07-11T12:28:01.764Z,27.49
2023-07-11T12:30:44.167Z,27.32
2023-07-11T12:33:37.579Z,27.13
2023-07-11T12:36:36.533Z,27.81
2023-07-11T12:39:35.968Z,28.60
2023-07-11T12:42:11.990Z,28.67
2023-07-11T12:44:40.644Z,29.08
2023-07-11T12:47:15.767Z,28.81
2023-07-11T12:49:45.886Z,28.02
2023-07-11T12:52:17.150Z,28.43
2023-07-11T12:54:46.461Z,28.93
2023-07-11T12:57:16.802Z,28.88
2023-07-11T12:59:45.193Z,29.17
2023-07-11T13:02:17.362Z,29.37
2023-07-11T13:04:52.936Z,29.15
2023-07-11T13:07:25.374Z,29.08
2023-07-11T13:09:55.784Z,28.39
2023-07-11T13:12:27.801Z,28.42
2023-07-11T13:14:56.050Z,28.43
2023-07-11T13:17:27.540Z,28.04
2023-07-11T13:20:02.776Z,27.54
2023-07-11T13:22:31.536Z,27.65
2023-07-11T13:25:01.122Z,27.47
2023-07-11T13:27:32.982Z,27.61
2023-07-11T13:30:01.264Z,27.44
2023-07-11T13:32:31.627Z,27.21
2023-07-11T13:37:49.042Z,27.44
2023-07-11T13:40:36.691Z,27.32
2023-07-11T13:43:15.691Z,27.08
2023-07-11T13:45:44.022Z,27.15
2023-07-11T13:48:16.953Z,27.10
2023-07-11T13:50:45.579Z,27.09
2023-07-11T13:53:16.767Z,27.41
2023-07-11T13:55:52.186Z,27.53
2023-07-11T13:58:21.225Z,27.55
2023-07-11T14:00:52.495Z,27.54
2023-07-11T14:03:24.960Z,27.46
2023-07-11T14:05:58.358Z,27.55
2023-07-11T14:08:27.929Z,27.27
2023-07-11T14:10:56.235Z,27.26
2023-07-11T14:13:28.157Z,27.13
2023-07-11T14:15:58.670Z,26.88
2023-07-11T14:18:28.435Z,26.60
2023-07-11T14:20:56.687Z,26.07
2023-07-11T14:23:26.829Z,26.05
2023-07-11T14:25:56.829Z,25.98
2023-07-11T14:28:25.834Z,25.92
2023-07-11T14:30:57.543Z,25.52
2023-07-11T14:33:30.482Z,25.41
2023-07-11T14:35:59.502Z,25.31
2023-07-11T14:38:29.235Z,25.38
2023-07-11T14:40:58.274Z,25.45
2023-07-11T14:43:27.975Z,25.51
2023-07-11T14:45:56.638Z,25.21
2023-07-11T14:48:27.702Z,25.24
2023-07-11T14:51:02.157Z,25.26
2023-07-11T14:53:37.277Z,25.31
2023-07-11T14:58:40.501Z,25.04
2023-07-11T15:01:13.547Z,24.86
2023-07-11T15:16:27.381Z,25.03
2023-07-11T15:18:55.900Z,24.85
2023-07-11T15:21:25.715Z,24.85
2023-07-11T15:23:53.981Z,24.62
2023-07-11T15:26:25.659Z,24.53
2023-07-11T15:28:54.662Z,24.41
2023-07-11T15:31:23.408Z,24.42
2023-07-11T15:33:51.960Z,24.18
2023-07-11T15:36:20.737Z,23.98
2023-07-11T15:38:51.257Z,23.96
2023-07-11T15:41:20.117Z,23.84
2023-07-11T15:43:48.725Z,23.79
2023-07-11T15:46:23.015Z,23.58
2023-07-11T15:48:54.327Z,23.49
2023-07-11T15:51:22.914Z,22.95
2023-07-11T15:53:53.083Z,23.02
2023-07-11T15:56:21.604Z,23.15
2023-07-11T15:58:50.016Z,23.23
2023-07-11T16:01:18.476Z,23.23
2023-07-11T16:03:46.781Z,23.08
2023-07-11T16:06:19.296Z,23.22
2023-07-11T16:08:47.601Z,23.32
2023-07-11T16:11:18.863Z,23.36
2023-07-11T16:13:47.510Z,23.26
2023-07-11T16:16:19.062Z,23.47
2023-07-11T16:18:47.723Z,23.59
2023-07-11T16:21:17.800Z,23.52
2023-07-11T16:23:46.110Z,23.45
2023-07-11T16:26:21.359Z,23.53
2023-07-11T16:28:51.275Z,23.56
2023-07-11T16:31:19.981Z,23.53
2023-07-11T16:33:48.430Z,23.52
2023-07-11T16:36:18.638Z,23.55
2023-07-11T16:38:46.886Z,22.98
2023-07-11T16:41:15.369Z,22.79
2023-07-11T16:43:45.232Z,22.92
2023-07-11T16:46:19.566Z,23.16
2023-07-11T16:48:48.073Z,23.26
2023-07-11T16:51:23.399Z,23.37
2023-07-11T16:53:51.867Z,23.47
2023-07-11T16:56:20.190Z,23.45
2023-07-11T16:58:49.920Z,23.44
2023-07-11T17:01:21.517Z,23.42
2023-07-11T17:03:50.619Z,23.47
2023-07-11T17:06:26.081Z,23.51
2023-07-11T17:08:54.884Z,23.51
2023-07-11T17:11:23.379Z,23.53
2023-07-11T17:13:53.187Z,23.62
2023-07-11T17:16:25.569Z,23.66
2023-07-11T17:18:54.183Z,23.67
2023-07-11T17:21:22.594Z,23.66
2023-07-11T17:23:51.049Z,23.78
2023-07-11T17:26:19.536Z,23.79
2023-07-11T17:28:47.827Z,23.75
2023-07-11T17:31:17.919Z,23.78
2023-07-11T17:33:46.705Z,23.59
2023-07-11T17:36:17.203Z,23.51
2023-07-11T17:38:47.132Z,23.60
2023-07-11T17:41:15.952Z,23.54
2023-07-11T17:43:46.614Z,23.47
2023-07-11T17:46:45.989Z,23.56
2023-07-11T17:49:11.576Z,23.62
2023-07-11T17:51:40.579Z,23.57
2023-07-11T17:54:09.044Z,23.50
2023-07-11T17:56:57.082Z,23.47
2023-07-11T17:59:27.279Z,23.10
2023-07-11T18:01:57.384Z,23.07
2023-07-11T18:04:25.885Z,22.97
2023-07-11T18:06:54.346Z,22.91
2023-07-11T18:09:22.672Z,22.85
2023-07-11T18:11:51.183Z,22.85
2023-07-11T18:14:19.447Z,22.97
2023-07-11T18:16:47.753Z,22.93
2023-07-11T18:19:17.433Z,22.96
2023-07-11T18:21:46.006Z,22.98
2023-07-11T18:24:14.391Z,22.92
2023-07-11T18:26:42.728Z,22.86
2023-07-11T18:29:11.637Z,22.74
2023-07-11T18:31:40.124Z,22.71
2023-07-11T18:34:08.552Z,22.66
2023-07-11T18:36:38.318Z,22.62
2023-07-11T18:39:06.645Z,22.60
2023-07-11T18:41:35.028Z,22.59
2023-07-11T18:44:03.429Z,22.46
2023-07-11T18:46:31.760Z,22.38
2023-07-11T18:49:00.131Z,22.34
2023-07-11T18:51:29.073Z,22.36
2023-07-11T18:53:59.036Z,22.39
2023-07-11T18:56:28.661Z,22.42
2023-07-11T18:58:56.976Z,22.36
2023-07-11T19:01:25.283Z,22.34
2023-07-11T19:03:53.855Z,22.23
2023-07-11T19:06:22.409Z,22.10
2023-07-11T19:08:50.665Z,22.04
2023-07-11T19:11:20.392Z,22.21
2023-07-11T19:13:48.866Z,22.22
2023-07-11T19:16:20.544Z,22.31
2023-07-11T19:18:49.170Z,22.25
2023-07-11T19:21:17.541Z,22.18
2023-07-11T19:23:46.400Z,22.05
2023-07-11T19:26:16.837Z,21.97
2023-07-11T19:28:46.892Z,21.85
2023-07-11T19:31:16.930Z,21.81
2023-07-11T19:33:47.381Z,21.70
2023-07-11T19:36:21.160Z,21.57
2023-07-11T19:38:49.729Z,21.51
2023-07-11T19:41:20.559Z,21.38
2023-07-11T19:43:50.389Z,21.31
2023-07-11T19:46:22.265Z,21.37
2023-07-11T19:48:51.836Z,21.38
2023-07-11T19:51:20.143Z,21.36
2023-07-11T19:53:48.383Z,21.29
2023-07-11T19:56:25.123Z,21.06
2023-07-11T19:58:55.618Z,21.10
2023-07-11T20:01:23.977Z,21.17
2023-07-11T20:03:53.175Z,21.14
2023-07-11T20:06:24.541Z,21.10
2023-07-11T20:08:53.152Z,21.03
2023-07-11T20:11:21.688Z,20.91
2023-07-11T20:13:50.025Z,20.98
2023-07-11T20:16:22.830Z,20.96
2023-07-11T20:18:53.582Z,20.79
2023-07-11T20:21:24.327Z,20.74
2023-07-11T20:23:54.372Z,20.83
2023-07-11T20:26:24.205Z,20.79
2023-07-11T20:28:54.227Z,20.91
2023-07-11T20:31:25.025Z,21.12
2023-07-11T20:33:53.589Z,21.31
2023-07-11T20:36:23.795Z,21.39
2023-07-11T20:38:52.829Z,21.36
2023-07-11T20:41:21.430Z,21.37
2023-07-11T20:43:50.868Z,21.41
2023-07-11T20:46:21.671Z,21.43
2023-07-11T20:48:52.549Z,21.45
2023-07-11T20:51:22.155Z,21.53
2023-07-11T20:53:50.611Z,21.58
2023-07-11T20:56:20.335Z,21.64
2023-07-11T20:58:49.544Z,21.75
2023-07-11T21:01:20.067Z,21.84
2023-07-11T21:03:49.266Z,21.77
2023-07-11T21:06:30.518Z,21.68
2023-07-11T21:08:58.845Z,21.75
2023-07-11T21:11:27.228Z,21.73
2023-07-11T21:13:55.704Z,21.77
2023-07-11T21:16:29.075Z,21.85
2023-07-11T21:19:00.652Z,21.89
2023-07-11T21:21:30.843Z,21.92
2023-07-11T21:23:59.307Z,21.99
2023-07-11T21:26:28.493Z,22.05
2023-07-11T21:28:57.967Z,22.13
2023-07-11T21:31:27.829Z,22.21
2023-07-11T21:33:57.088Z,22.25
2023-07-11T21:36:26.474Z,22.46
2023-07-11T21:38:56.547Z,22.61
2023-07-11T21:41:25.029Z,22.59
2023-07-11T21:43:54.265Z,22.58
2023-07-11T21:46:30.434Z,22.81
2023-07-11T21:48:59.580Z,22.78
2023-07-11T21:51:29.024Z,22.65
2023-07-11T21:54:00.063Z,22.59
2023-07-11T21:56:30.954Z,22.61
2023-07-11T21:59:02.310Z,22.67
2023-07-11T22:01:31.928Z,22.63
2023-07-11T22:04:02.000Z,22.68
2023-07-11T22:06:32.131Z,22.59
2023-07-11T22:09:02.420Z,22.44
2023-07-11T22:11:30.959Z,22.23
2023-07-11T22:13:59.359Z,22.16
2023-07-11T22:16:30.804Z,22.02
2023-07-11T22:18:59.583Z,21.99
2023-07-11T22:21:28.639Z,22.00
2023-07-11T22:23:59.178Z,21.94
2023-07-11T22:26:32.083Z,22.00
2023-07-11T22:29:02.656Z,22.11
2023-07-11T22:31:31.920Z,22.21
2023-07-11T22:34:00.506Z,22.23
2023-07-11T22:36:28.869Z,22.17
2023-07-11T22:38:57.210Z,22.16
2023-07-11T22:41:25.642Z,22.15
2023-07-11T22:43:55.397Z,22.04
2023-07-11T22:46:23.813Z,21.89
2023-07-11T22:48:52.544Z,21.75
2023-07-11T22:51:20.906Z,21.70
2023-07-11T22:53:49.960Z,21.62
2023-07-11T22:56:20.552Z,21.89
2023-07-11T22:58:49.003Z,21.93
2023-07-11T23:01:20.576Z,22.10
2023-07-11T23:03:49.091Z,22.14
2023-07-11T23:06:21.171Z,22.16
2023-07-11T23:08:50.428Z,22.17
2023-07-11T23:11:19.222Z,22.34
2023-07-11T23:13:48.155Z,22.36
2023-07-11T23:16:28.523Z,22.44
2023-07-11T23:18:58.442Z,22.48
2023-07-11T23:21:26.875Z,22.61
2023-07-11T23:23:55.831Z,22.71
2023-07-11T23:26:24.743Z,22.80
2023-07-11T23:28:53.818Z,22.81
2023-07-11T23:31:23.639Z,22.95
2023-07-11T23:33:51.964Z,22.81
2023-07-11T23:36:22.750Z,22.76
2023-07-11T23:38:53.280Z,22.66
2023-07-11T23:41:22.452Z,22.62
2023-07-11T23:43:53.222Z,22.57
2023-07-11T23:46:28.233Z,22.52
2023-07-11T23:48:57.233Z,22.43
2023-07-11T23:51:27.020Z,22.38
2023-07-11T23:53:55.764Z,22.36
2023-07-11T23:56:26.663Z,22.18
2023-07-11T23:58:55.321Z,22.12
